Latest Weather Observations for Essendon Airport

IDV60901

Issued at 8:11 pm EDT Saturday 10 December 2022 (issued every 10 minutes, with the page automatically refreshed every 10 minutes)

About weather observations | Map of Melbourne area stations | Latest observations for Melbourne area | Other Formats
Station Details ID: 086038 Name: ESSENDON AIRPORT Lat: -37.73 Lon: 144.91 Height: 78.4 m
Data from the previous 72 hours. | See also: Recent months at Essendon Airport
Date/Time
EDT
Temp
°C
App
Temp
°C
Dew
Point
°C
Rel
Hum
%
Delta-T
°C
Wind Press
QNH
hPa
Press
MSL
hPa
Rain since
9am
mm
Dir  Spd
km/h
Gust
km/h
Spd
kts
Gust
kts
10/08:00pm 21.1 18.6 10.9 52 5.6 SSW 15 19 8 10 1010.4 1010.2 0.0
10/07:30pm 22.6 20.7 10.4 46 6.7 SW 11 15 6 8 1010.2 1010.0 0.0
10/07:00pm 24.6 21.4 6.8 32 9.3 N 13 19 7 10 1010.2 1010.0 0.0
10/06:30pm 25.5 22.4 7.1 31 9.7 N 13 24 7 13 1010.2 1010.0 0.0
10/06:00pm 26.0 23.0 7.6 31 9.8 NNW 13 20 7 11 1010.4 1010.2 0.0
10/05:30pm 25.9 23.1 7.0 30 10.0 N 11 24 6 13 1010.2 1010.0 0.0
10/05:00pm 26.1 24.1 8.6 33 9.5 N 9 15 5 8 1010.5 1010.3 0.0
10/04:30pm 25.9 23.2 7.5 31 9.8 N 11 28 6 15 1010.7 1010.5 0.0
10/04:00pm 25.6 21.8 7.7 32 9.6 N 17 28 9 15 1011.2 1011.0 0.0
10/03:30pm 25.2 20.8 7.3 32 9.5 NNE 20 33 11 18 1011.6 1011.4 0.0
10/03:00pm 25.2 21.3 8.7 35 8.9 NNE 19 28 10 15 1012.1 1011.9 0.0
10/02:30pm 24.7 20.7 8.2 35 8.8 N 19 32 10 17 1012.6 1012.5 0.0
10/02:00pm 24.3 21.2 7.4 34 8.9 NNW 13 28 7 15 1013.1 1013.0 0.0
10/01:30pm 23.8 19.2 6.6 33 8.9 N 20 37 11 20 1013.6 1013.5 0.0
10/01:00pm 23.1 19.2 7.2 36 8.3 N 17 30 9 16 1013.8 1013.7 0.0
10/12:30pm 22.2 18.3 7.2 38 7.8 N 17 30 9 16 1014.2 1014.1 0.0
10/12:00pm 22.1 18.0 7.9 40 7.4 N 19 30 10 16 1014.7 1014.6 0.0
10/11:30am 21.0 17.1 6.9 40 7.2 NNW 17 24 9 13 1015.4 1015.2 0.0
10/11:00am 18.9 16.2 7.4 47 5.8 N 11 20 6 11 1015.6 1015.4 0.0
10/10:30am 17.3 14.8 6.5 49 5.3 NW 9 15 5 8 1015.9 1015.7 0.0
10/10:00am 15.7 13.7 6.4 54 4.5 W 6 9 3 5 1016.3 1016.1 0.0
10/09:30am 15.0 13.2 7.3 60 3.8 WNW 6 15 3 8 1016.8 1016.6 0.0
10/09:00am 13.6 11.3 7.6 67 3.0 WNW 9 15 5 8 1017.1 1016.9 0.0
10/08:30am 12.5 10.0 8.0 74 2.2 W 11 15 6 8 1016.9 1016.7 0.0
10/08:00am 11.3 8.8 8.0 80 1.6 W 11 17 6 9 1016.7 1016.5 0.0
10/07:30am 10.4 8.3 8.2 86 1.1 W 9 13 5 7 1016.5 1016.3 0.0
10/07:00am 8.9 6.4 8.0 94 0.4 WNW 11 13 6 7 1016.2 1016.0 0.0
10/06:30am 7.3 4.9 7.0 98 0.1 NW 9 11 5 6 1015.9 1015.7 0.0
10/06:00am 6.5 4.3 6.4 99 0.0 NW 7 9 4 5 1015.9 1015.7 0.0
10/05:30am 7.2 4.8 6.8 97 0.2 NW 9 11 5 6 1015.8 1015.6 0.0
10/05:00am 7.2 4.4 7.1 99 0.0 NW 11 13 6 7 1015.6 1015.4 0.0
10/04:30am 7.3 5.3 7.0 98 0.1 W 7 7 4 4 1015.4 1015.2 0.0
10/04:00am 7.3 4.5 6.9 97 0.2 W 11 13 6 7 1016.0 1015.8 0.0
10/03:30am 7.9 5.5 7.0 94 0.4 WNW 9 11 5 6 1016.2 1016.0 0.0
10/03:00am 8.1 5.7 7.0 93 0.5 WNW 9 11 5 6 1016.2 1016.0 0.0
10/02:30am 8.8 7.7 7.1 89 0.8 WNW 2 7 1 4 1016.3 1016.1 0.0
10/02:00am 9.7 8.7 7.3 85 1.1 SSE 2 6 1 3 1016.6 1016.4 0.0
10/01:30am 9.4 7.5 6.7 83 1.3 SSE 6 9 3 5 1016.8 1016.6 0.0
10/01:00am 10.3 7.8 6.6 78 1.7 SSE 9 11 5 6 1017.1 1016.9 0.0
10/12:30am 10.4 7.9 6.7 78 1.7 SSE 9 13 5 7 1017.3 1017.1 0.0
10/12:00am 10.6 8.6 6.4 75 2.0 SSE 6 9 3 5 1017.5 1017.3 0.0
 
Date/Time
EDT
Temp
°C
App
Temp
°C
Dew
Point
°C
Rel
Hum
%
Delta-T
°C
Wind Press
QNH
hPa
Press
MSL
hPa
Rain since
9am
mm
Dir  Spd
km/h
Gust
km/h
Spd
kts
Gust
kts
09/11:30pm 11.6 8.3 6.5 71 2.4 SSE 13 17 7 9 1017.5 1017.3 0.0
09/11:00pm 12.1 8.5 6.6 69 2.6 SSE 15 20 8 11 1017.7 1017.5 0.0
09/10:30pm 12.3 8.1 5.9 65 3.0 SE 17 22 9 12 1017.8 1017.6 0.0
09/10:00pm 12.7 8.7 6.5 66 3.0 SSE 17 24 9 13 1017.7 1017.5 0.0
09/09:30pm 13.3 9.0 6.9 65 3.1 SSE 19 26 10 14 1017.6 1017.4 0.0
09/09:00pm 13.6 9.0 6.7 63 3.3 S 20 30 11 16 1017.5 1017.3 0.0
09/08:30pm 14.1 8.4 6.7 61 3.6 S 26 33 14 18 1017.3 1017.1 0.0
09/08:00pm 14.6 9.4 7.2 61 3.6 S 24 33 13 18 1016.9 1016.7 0.0
09/07:30pm 15.2 9.6 7.3 59 3.9 S 26 39 14 21 1016.5 1016.3 0.0
09/07:00pm 15.6 9.2 7.1 57 4.2 S 30 37 16 20 1016.3 1016.1 0.0
09/06:30pm 16.1 10.5 7.3 56 4.4 S 26 37 14 20 1016.2 1016.0 0.0
09/06:00pm 16.5 10.8 6.9 53 4.8 SSE 26 35 14 19 1016.1 1015.9 0.0
09/05:30pm 16.6 10.2 7.0 53 4.8 S 30 44 16 24 1016.4 1016.2 0.0
09/05:00pm 16.7 10.8 7.4 54 4.7 S 28 39 15 21 1016.7 1016.5 0.0
09/04:30pm 17.0 11.1 7.6 54 4.7 SSW 28 37 15 20 1016.9 1016.7 0.0
09/04:00pm 16.2 10.8 6.3 52 4.8 S 24 37 13 20 1016.9 1016.7 0.0
09/03:30pm 17.1 11.8 6.6 50 5.2 S 24 35 13 19 1017.0 1016.8 0.0
09/03:00pm 16.6 11.1 5.9 49 5.2 S 24 35 13 19 1017.2 1017.0 0.0
09/02:30pm 18.0 13.3 7.7 51 5.2 SSW 22 32 12 17 1017.3 1017.1 0.0
09/02:00pm 17.1 12.2 6.9 51 5.1 SSW 22 41 12 22 1017.6 1017.4 0.0
09/01:30pm 15.6 10.3 4.9 49 5.1 S 22 33 12 18 1017.7 1017.5 0.0
09/01:00pm 15.9 10.1 6.1 52 4.8 SSW 26 39 14 21 1017.8 1017.6 0.0
09/12:30pm 15.8 10.1 5.1 49 5.1 S 24 32 13 17 1018.0 1017.8 0.0
09/12:00pm 15.7 10.0 5.0 49 5.1 S 24 35 13 19 1018.2 1018.0 0.0
09/11:30am 15.1 9.8 5.0 51 4.8 S 22 33 12 18 1018.2 1018.0 0.0
09/11:00am 14.4 8.9 3.8 49 4.8 SSE 22 32 12 17 1018.2 1018.0 0.0
09/10:30am 14.6 8.8 4.3 50 4.8 S 24 37 13 20 1018.1 1017.9 0.0
09/10:00am 14.5 8.3 4.2 50 4.7 SSE 26 35 14 19 1018.1 1017.9 0.0
09/09:30am 14.8 9.2 5.3 53 4.5 SSE 24 37 13 20 1018.1 1017.9 0.0
09/09:00am 14.1 8.3 4.4 52 4.5 SSE 24 32 13 17 1017.9 1017.7 0.2
09/08:30am 13.2 7.4 4.6 56 4.0 SE 24 30 13 16 1017.8 1017.6 0.2
09/08:00am 12.2 8.4 5.6 64 3.1 SE 15 24 8 13 1017.6 1017.4 0.2
09/07:30am 11.6 8.3 6.3 70 2.5 SE 13 17 7 9 1017.3 1017.1 0.2
09/07:00am 11.6 7.0 5.7 67 2.7 SE 19 24 10 13 1016.8 1016.6 0.2
09/06:30am 11.4 6.5 4.2 61 3.2 SSE 19 28 10 15 1016.7 1016.5 0.2
09/06:00am 10.5 7.1 4.0 64 2.9 SSE 11 19 6 10 1016.6 1016.4 0.2
09/05:30am 11.1 7.0 4.6 64 2.9 SSE 15 20 8 11 1016.1 1015.9 0.2
09/05:00am 11.0 5.8 3.8 61 3.2 SSE 20 30 11 16 1015.6 1015.4 0.2
09/04:30am 11.3 5.9 4.5 63 3.1 SSE 22 30 12 16 1015.5 1015.3 0.2
09/04:00am 10.9 7.3 6.8 76 1.9 SSW 15 24 8 13 1016.1 1015.9 0.2
09/03:30am 9.7 7.5 7.8 88 0.9 SW 9 13 5 7 1016.5 1016.3 0.2
09/03:00am 8.8 5.5 6.3 84 1.2 WSW 13 17 7 9 1016.8 1016.6 0.2
09/02:30am 10.0 6.7 6.5 79 1.6 SW 13 17 7 9 1017.0 1016.8 0.2
09/02:00am 10.5 5.9 6.3 75 2.0 WSW 20 30 11 16 1017.3 1017.1 0.2
09/01:30am 11.9 6.7 5.3 64 3.1 SSW 22 35 12 19 1017.4 1017.2 0.2
09/01:00am 11.3 6.6 6.2 71 2.4 SW 20 28 11 15 1017.6 1017.4 0.2
09/12:30am 11.6 7.2 4.8 63 3.1 SSW 17 26 9 14 1017.4 1017.2 0.2
09/12:00am 11.2 7.2 4.7 64 2.9 SSW 15 22 8 12 1017.2 1017.0 0.2
 
Date/Time
EDT
Temp
°C
App
Temp
°C
Dew
Point
°C
Rel
Hum
%
Delta-T
°C
Wind Press
QNH
hPa
Press
MSL
hPa
Rain since
9am
mm
Dir  Spd
km/h
Gust
km/h
Spd
kts
Gust
kts
08/11:30pm 11.6 5.4 4.3 61 3.3 SSW 26 35 14 19 1017.3 1017.1 0.2
08/11:00pm 11.6 6.8 5.5 66 2.8 SSW 20 32 11 17 1017.4 1017.2 0.2
08/10:30pm 10.8 6.4 4.9 67 2.7 SSW 17 24 9 13 1017.5 1017.3 0.2
08/10:00pm 11.5 6.1 4.7 63 3.1 SSW 22 32 12 17 1017.3 1017.1 0.2
08/09:30pm 11.8 5.9 4.1 59 3.5 SSW 24 33 13 18 1016.8 1016.6 0.2
08/09:00pm 12.2 6.4 4.2 58 3.6 SSW 24 33 13 18 1016.6 1016.4 0.2
08/08:30pm 12.7 5.7 4.2 56 3.9 S 30 39 16 21 1016.7 1016.5 0.2
08/08:00pm 13.1 5.4 3.2 51 4.4 S 33 43 18 23 1016.7 1016.5 0.2
08/07:30pm 13.1 6.4 5.5 60 3.6 S 30 41 16 22 1016.3 1016.1 0.2
08/07:19pm 13.3 6.6 5.5 59 3.7 S 30 48 16 26 1016.1 1015.9 0.2
08/07:00pm 14.0 6.7 4.6 53 4.4 S 32 44 17 24 1015.9 1015.7 0.2
08/06:30pm 14.4 7.2 5.7 56 4.1 S 33 44 18 24 1015.5 1015.3 0.2
08/06:00pm 14.2 6.6 3.7 49 4.8 SSW 33 44 18 24 1015.3 1015.1 0.2
08/05:30pm 14.7 7.5 5.0 52 4.6 S 32 44 17 24 1015.0 1014.9 0.2
08/05:00pm 15.1 8.0 6.4 56 4.2 S 33 46 18 25 1015.0 1014.9 0.2
08/04:36pm 14.6 7.0 3.7 48 5.0 S 33 52 18 28 1015.2 1015.0 0.2
08/04:30pm 15.1 7.9 5.9 54 4.4 S 33 50 18 27 1015.0 1014.9 0.2
08/04:00pm 14.5 7.5 5.8 56 4.2 S 32 48 17 26 1014.9 1014.8 0.2
08/03:59pm 14.8 8.2 5.9 55 4.3 S 30 48 16 26 1014.9 1014.8 0.2
08/03:30pm 15.0 7.7 4.7 50 4.8 S 32 46 17 25 1014.9 1014.8 0.2
08/03:00pm 14.9 7.6 4.6 50 4.8 S 32 46 17 25 1014.9 1014.8 0.2
08/02:43pm 15.1 8.2 6.4 56 4.2 S 32 50 17 27 1014.9 1014.8 0.2
08/02:30pm 14.5 6.9 5.8 56 4.2 SSW 35 46 19 25 1014.8 1014.7 0.2
08/02:03pm 15.7 8.8 6.4 54 4.5 S 32 50 17 27 1014.8 1014.7 0.2
08/02:00pm 15.5 8.3 6.0 53 4.6 S 33 50 18 27 1014.9 1014.8 0.2
08/01:30pm 14.2 6.9 5.6 56 4.1 S 33 48 18 26 1014.9 1014.8 0.2
08/01:09pm 13.6 5.3 6.0 60 3.6 S 39 57 21 31 1014.8 1014.7 0.2
08/01:00pm 13.5 5.2 6.1 61 3.5 S 39 54 21 29 1014.8 1014.7 0.2
08/12:30pm 15.2 8.5 5.4 52 4.7 S 30 44 16 24 1014.6 1014.5 0.2
08/12:00pm 13.1 7.2 6.0 62 3.4 SW 26 39 14 21 1014.6 1014.5 0.2
08/11:30am 12.6 6.0 6.0 64 3.1 SW 30 37 16 20 1014.6 1014.5 0.2
08/11:00am 11.4 5.6 7.9 79 1.7 SW 28 33 15 18 1014.8 1014.7 0.2
08/10:45am 12.0 5.8 6.3 68 2.7 SSW 28 57 15 31 1014.7 1014.6 0.0
08/10:30am 12.4 4.5 6.0 65 3.0 SSW 37 48 20 26 1014.4 1014.3 0.0
08/10:00am 14.1 6.9 6.0 58 3.9 SW 33 44 18 24 1013.9 1013.8 0.0
08/09:30am 12.7 5.3 4.2 56 3.9 SW 32 44 17 24 1013.8 1013.7 0.0
08/09:00am 11.4 4.7 5.5 67 2.7 WSW 30 41 16 22 1013.3 1013.2 0.2
08/08:30am 10.2 4.9 6.9 80 1.6 SW 24 30 13 16 1013.1 1013.0 0.2
08/08:00am 10.3 3.1 5.9 74 2.0 SW 33 46 18 25 1012.7 1012.6 0.2
08/07:30am 9.5 3.2 5.5 76 1.8 WSW 28 37 15 20 1012.2 1012.0 0.2
08/07:00am 9.0 3.5 6.1 82 1.3 WSW 24 32 13 17 1011.9 1011.7 0.2
08/06:30am 8.3 3.6 5.9 85 1.1 WSW 20 26 11 14 1011.3 1011.1 0.2
08/06:00am 7.9 3.2 5.9 87 0.9 WSW 20 28 11 15 1011.0 1010.8 0.2
08/05:30am 7.7 2.9 5.7 87 0.9 WSW 20 26 11 14 1010.7 1010.5 0.2
08/05:00am 8.1 2.8 5.2 82 1.3 WSW 22 32 12 17 1010.7 1010.5 0.2
08/04:30am 8.3 2.7 5.2 81 1.4 WSW 24 30 13 16 1010.8 1010.6 0.2
08/04:00am 8.3 2.2 4.9 79 1.5 WSW 26 32 14 17 1010.6 1010.4 0.2
08/03:30am 8.3 3.4 5.1 80 1.4 W 20 28 11 15 1010.5 1010.3 0.2
08/03:00am 8.8 3.5 5.2 78 1.6 WSW 22 30 12 16 1010.4 1010.2 0.2
08/02:30am 8.6 2.9 4.8 77 1.7 WSW 24 32 13 17 1010.3 1010.1 0.2
08/02:00am 8.7 3.5 5.3 79 1.5 WSW 22 33 12 18 1010.6 1010.4 0.2
08/01:30am 8.7 3.9 5.6 81 1.4 W 20 28 11 15 1010.7 1010.5 0.2
08/01:00am 9.3 3.9 4.7 73 2.1 WSW 22 30 12 16 1010.8 1010.6 0.2
08/12:30am 9.5 5.1 4.9 73 2.1 WSW 17 26 9 14 1010.9 1010.7 0.2
08/12:00am 9.9 4.4 4.1 67 2.6 WSW 22 28 12 15 1010.8 1010.6 0.2
 
Date/Time
EDT
Temp
°C
App
Temp
°C
Dew
Point
°C
Rel
Hum
%
Delta-T
°C
Wind Press
QNH
hPa
Press
MSL
hPa
Rain since
9am
mm
Dir  Spd
km/h
Gust
km/h
Spd
kts
Gust
kts
07/11:30pm 10.6 3.6 4.3 65 2.8 WSW 30 43 16 23 1010.7 1010.5 0.2
07/11:00pm 10.8 4.7 4.9 67 2.7 WSW 26 33 14 18 1010.4 1010.2 0.2
07/10:30pm 11.3 4.7 6.0 70 2.5 WSW 30 44 16 24 1009.9 1009.7 0.2
07/10:00pm 11.9 5.2 7.2 73 2.3 WSW 32 41 17 22 1009.4 1009.2 0.2
07/09:34pm 12.2 6.1 8.3 77 1.9 WSW 30 48 16 26 1008.8 1008.6 0.2
07/09:30pm 12.2 6.6 8.9 80 1.7 WSW 28 39 15 21 1008.7 1008.5 0.2
07/09:00pm 12.3 6.4 10.4 88 1.0 WSW 32 46 17 25 1008.1 1007.9 0.2
07/08:30pm 12.2 6.0 11.4 95 0.4 WSW 35 46 19 25 1007.6 1007.4 0.2

Latest Capital City Observations: Canberra | Sydney | Melbourne | Brisbane | Adelaide | Perth | Hobart | Darwin

Other formats

Comma delimited format used in spreadsheet applications
http://www.bom.gov.au/fwo/IDV60901/IDV60901.95866.axf

JavaScript Object Notation format (JSON) in row-major order
http://www.bom.gov.au/fwo/IDV60901/IDV60901.95866.json

Data quality

Most of these data are generated automatically and are frequently updated. Quality checks on data are not normally performed. It is possible for incorrect values to appear. Refer to information at About Latest Weather Observations and please check the disclaimer before using these data.